Time;durP1;ratioP1;P1;durP2;ratioP2;P2;SDS_P1;SDS_P2;PMS_P1;PMS_P2;Temp;Humidity;BMP_temperature;BMP_pressure;BME280_temperature;BME280_humidity;BME280_pressure;Samples;Min_cycle;Max_cycle;Signal;HPM_P1;HPM_P2
2022/08/17 00:00:35;;;;;;;4.63;3.00;;;19.80;99.90;;;;;;5053727;28;20076;-67
2022/08/17 00:03:18;;;;;;;4.95;2.97;;;20.00;99.90;;;;;;5055290;28;20033;-66
2022/08/17 00:05:53;;;;;;;3.92;3.15;;;20.10;99.90;;;;;;5053814;28;20086;-66
2022/08/17 00:08:22;;;;;;;4.05;3.13;;;20.20;99.90;;;;;;5053570;28;20047;-65
2022/08/17 00:10:49;;;;;;;3.88;3.03;;;20.10;99.90;;;;;;5053894;28;20079;-66
2022/08/17 00:13:28;;;;;;;3.95;3.22;;;19.90;99.90;;;;;;5053293;28;20091;-66
2022/08/17 00:16:05;;;;;;;4.45;2.72;;;19.80;99.90;;;;;;5054239;28;20118;-67
2022/08/17 00:18:32;;;;;;;5.55;3.63;;;19.50;99.90;;;;;;5070944;28;20040;-67
2022/08/17 00:20:58;;;;;;;4.80;3.63;;;19.80;99.90;;;;;;5074051;28;20488;-66
2022/08/17 00:23:26;;;;;;;4.40;3.00;;;19.90;99.90;;;;;;5071533;28;20032;-66
2022/08/17 00:25:52;;;;;;;6.38;3.15;;;19.80;99.90;;;;;;5055477;28;20043;-66
2022/08/17 00:28:19;;;;;;;5.10;3.33;;;19.60;99.90;;;;;;5053171;28;20049;-66
2022/08/17 00:30:47;;;;;;;3.90;3.13;;;19.70;99.90;;;;;;5054030;28;20404;-66
2022/08/17 00:33:26;;;;;;;3.83;3.00;;;19.80;99.90;;;;;;5055595;28;20033;-66
2022/08/17 00:39:14;;;;;;;5.75;3.28;;;19.80;99.90;;;;;;5055286;28;20098;-66
2022/08/17 00:41:40;;;;;;;4.03;3.30;;;19.80;99.90;;;;;;5055296;28;20064;-66
2022/08/17 00:44:06;;;;;;;6.18;3.33;;;19.90;99.90;;;;;;5055201;28;20480;-66
2022/08/17 00:46:38;;;;;;;10.90;3.67;;;19.80;99.90;;;;;;5055272;28;20033;-66
2022/08/17 00:49:05;;;;;;;6.68;3.53;;;19.80;99.90;;;;;;5055005;28;20056;-66
2022/08/17 00:51:52;;;;;;;5.82;3.25;;;19.80;99.90;;;;;;5055077;28;20037;-66
2022/08/17 00:54:32;;;;;;;3.55;3.05;;;19.70;99.90;;;;;;5054753;28;20037;-66
2022/08/17 00:57:13;;;;;;;7.45;3.58;;;19.70;99.90;;;;;;5057918;28;20036;-66
2022/08/17 00:59:50;;;;;;;5.15;3.40;;;19.70;99.90;;;;;;5070041;28;20498;-66
2022/08/17 01:02:18;;;;;;;4.55;3.55;;;19.50;99.90;;;;;;5072593;28;20256;-66
2022/08/17 01:04:48;;;;;;;4.55;3.72;;;19.60;99.90;;;;;;5071261;28;20508;-67
2022/08/17 01:07:14;;;;;;;4.95;3.42;;;19.60;99.90;;;;;;5072184;28;20123;-66
2022/08/17 01:09:41;;;;;;;5.80;3.75;;;19.40;99.90;;;;;;5073704;28;20423;-66
2022/08/17 01:12:10;;;;;;;4.57;3.63;;;19.30;99.90;;;;;;5070327;28;20041;-66
2022/08/17 01:14:38;;;;;;;6.55;3.50;;;19.30;99.90;;;;;;5072292;28;20106;-67
2022/08/17 01:17:06;;;;;;;4.65;3.65;;;19.40;99.90;;;;;;5070293;28;20519;-66
2022/08/17 01:19:38;;;;;;;4.72;3.78;;;19.30;99.90;;;;;;5072844;28;20445;-66
2022/08/17 01:22:10;;;;;;;4.40;3.55;;;19.30;99.90;;;;;;5071505;28;20051;-66
2022/08/17 01:24:40;;;;;;;4.65;3.78;;;19.40;99.90;;;;;;5073098;28;20040;-66
2022/08/17 01:27:08;;;;;;;6.97;4.10;;;19.30;99.90;;;;;;5070826;28;20071;-66
2022/08/17 01:29:36;;;;;;;5.22;3.45;;;19.40;99.90;;;;;;5071278;28;20519;-67
2022/08/17 01:32:04;;;;;;;5.38;3.67;;;19.40;99.90;;;;;;5070649;28;20109;-66
2022/08/17 01:34:31;;;;;;;4.45;3.70;;;19.40;99.90;;;;;;5071249;28;20096;-67
2022/08/17 01:36:57;;;;;;;5.95;4.30;;;19.40;99.90;;;;;;5070612;28;20040;-67
2022/08/17 01:39:28;;;;;;;4.38;3.65;;;19.40;99.90;;;;;;5071052;28;20043;-66
2022/08/17 01:42:03;;;;;;;;;;;19.40;99.90;;;;;;5072266;28;20429;-66
2022/08/17 01:44:29;;;;;;;4.45;3.75;;;19.40;99.90;;;;;;5071974;28;20321;-66
2022/08/17 01:46:55;;;;;;;4.40;3.35;;;19.50;99.90;;;;;;5072019;28;20190;-67
2022/08/17 01:49:21;;;;;;;5.70;3.80;;;19.50;99.90;;;;;;5071297;28;20459;-67
2022/08/17 01:51:47;;;;;;;8.10;4.30;;;19.40;99.90;;;;;;5072941;28;20403;-67
2022/08/17 01:54:16;;;;;;;4.32;3.53;;;19.40;99.90;;;;;;5071494;28;20036;-67
2022/08/17 01:56:44;;;;;;;5.30;3.47;;;19.40;99.90;;;;;;5071523;28;20390;-67
2022/08/17 01:59:12;;;;;;;6.43;4.05;;;19.30;99.90;;;;;;5071268;28;20044;-68
2022/08/17 02:01:40;;;;;;;4.47;3.50;;;19.10;99.90;;;;;;5071192;28;20125;-69
2022/08/17 02:04:07;;;;;;;5.65;2.95;;;19.90;99.90;;;;;;5069423;28;20454;-68
2022/08/17 02:06:34;;;;;;;5.22;3.30;;;;;;;;;;5070990;28;20043;-69
2022/08/17 02:09:00;;;;;;;4.57;3.60;;;18.90;99.90;;;;;;5071135;28;20054;-68
2022/08/17 02:11:27;;;;;;;5.82;3.95;;;18.80;99.90;;;;;;5071260;28;20127;-69
2022/08/17 02:13:53;;;;;;;3.95;3.20;;;19.00;99.90;;;;;;5072019;28;20395;-69
2022/08/17 02:16:19;;;;;;;4.85;3.75;;;18.90;99.90;;;;;;5071973;28;20407;-69
2022/08/17 02:18:45;;;;;;;4.65;3.47;;;18.70;99.90;;;;;;5071077;28;20043;-69
2022/08/17 02:21:12;;;;;;;7.28;3.58;;;18.50;99.90;;;;;;5072713;28;20049;-69
2022/08/17 02:23:42;;;;;;;5.30;3.97;;;18.70;99.90;;;;;;5069931;28;20162;-69
2022/08/17 02:26:08;;;;;;;3.88;3.20;;;18.80;99.90;;;;;;5069729;28;20216;-70
2022/08/17 02:28:34;;;;;;;4.38;3.13;;;18.90;99.90;;;;;;5070862;28;20575;-70
2022/08/17 02:31:08;;;;;;;5.03;3.30;;;19.00;99.90;;;;;;5071505;28;20041;-69
2022/08/17 02:33:35;;;;;;;6.15;3.28;;;19.10;99.90;;;;;;5071009;28;20040;-70
2022/08/17 02:36:01;;;;;;;4.07;3.22;;;18.90;99.90;;;;;;5071825;28;20052;-70
2022/08/17 02:38:27;;;;;;;5.55;3.95;;;18.70;99.90;;;;;;5072660;28;20107;-70
2022/08/17 02:40:54;;;;;;;4.45;3.15;;;18.70;99.90;;;;;;5070326;28;20059;-70
2022/08/17 02:43:20;;;;;;;5.50;3.80;;;18.70;99.90;;;;;;5071591;28;20089;-69
2022/08/17 02:45:45;;;;;;;4.65;3.42;;;18.60;99.90;;;;;;5072800;28;20052;-67
2022/08/17 02:48:11;;;;;;;4.35;3.67;;;18.70;99.90;;;;;;5072100;28;20044;-67
2022/08/17 02:50:38;;;;;;;4.78;3.53;;;18.30;99.90;;;;;;5070338;28;20621;-66
2022/08/17 02:53:04;;;;;;;5.40;4.40;;;18.60;99.90;;;;;;5070833;28;20039;-67
2022/08/17 02:55:35;;;;;;;5.43;3.85;;;18.70;99.90;;;;;;5069553;28;20048;-68
2022/08/17 02:58:02;;;;;;;6.72;3.70;;;18.70;99.90;;;;;;5071900;28;20044;-67
2022/08/17 03:00:33;;;;;;;4.03;3.60;;;18.80;99.90;;;;;;5072197;28;20040;-68
2022/08/17 03:02:59;;;;;;;;;;;18.70;99.90;;;;;;5073186;28;20044;-67
2022/08/17 03:05:27;;;;;;;4.35;3.50;;;18.70;99.90;;;;;;5072726;28;19912;-67
2022/08/17 03:07:53;;;;;;;9.40;5.53;;;18.80;99.90;;;;;;5074603;28;20541;-68
2022/08/17 03:10:20;;;;;;;4.45;3.40;;;18.80;99.90;;;;;;5070286;28;20110;-67
2022/08/17 03:12:46;;;;;;;3.53;2.95;;;18.70;99.90;;;;;;5071939;28;20029;-68
2022/08/17 03:15:19;;;;;;;4.10;3.70;;;18.30;99.90;;;;;;5072007;28;20053;-67
2022/08/17 03:17:45;;;;;;;5.15;3.85;;;18.30;99.90;;;;;;5072656;28;20213;-67
2022/08/17 03:20:14;;;;;;;7.10;4.10;;;18.00;99.90;;;;;;5076313;28;20037;-66
2022/08/17 03:22:44;;;;;;;4.93;3.00;;;18.10;99.90;;;;;;5075129;28;20564;-67
2022/08/17 03:25:13;;;;;;;4.22;3.30;;;18.30;99.90;;;;;;5076737;28;20174;-67
2022/08/17 03:27:39;;;;;;;4.22;3.47;;;18.40;99.90;;;;;;5076310;28;20044;-67
2022/08/17 03:30:06;;;;;;;4.78;3.22;;;18.60;99.90;;;;;;5076771;28;20523;-67
2022/08/17 03:32:41;;;;;;;5.22;3.22;;;18.50;99.90;;;;;;5076922;28;20040;-67
2022/08/17 03:35:10;;;;;;;4.65;3.50;;;18.60;99.90;;;;;;5075788;28;20040;-67
2022/08/17 03:37:35;;;;;;;5.68;4.15;;;18.40;99.90;;;;;;5059002;28;20572;-68
2022/08/17 03:40:04;;;;;;;4.35;3.40;;;18.40;99.90;;;;;;5076520;28;20040;-67
2022/08/17 03:42:32;;;;;;;4.90;3.17;;;18.50;99.90;;;;;;5076836;28;20044;-67
2022/08/17 03:45:00;;;;;;;5.00;3.33;;;18.70;99.90;;;;;;5075727;28;20039;-67
2022/08/17 03:58:30;;;;;;;6.60;3.80;;;18.40;99.90;;;;;;5075382;28;20534;-67
2022/08/17 04:00:56;;;;;;;5.05;3.95;;;18.50;99.90;;;;;;5076231;28;20048;-67
2022/08/17 04:03:22;;;;;;;4.93;3.28;;;18.50;99.90;;;;;;5074661;28;20040;-67
2022/08/17 04:05:48;;;;;;;6.90;4.05;;;18.60;99.90;;;;;;5076102;28;20036;-67
2022/08/17 04:08:15;;;;;;;6.90;3.85;;;18.60;99.90;;;;;;5076030;28;20576;-67
2022/08/17 04:10:41;;;;;;;5.30;3.95;;;18.50;99.90;;;;;;5075666;28;20098;-69
2022/08/17 04:13:10;;;;;;;5.65;4.10;;;18.40;99.90;;;;;;5075748;28;20028;-70
2022/08/17 04:15:36;;;;;;;7.75;4.13;;;18.30;99.90;;;;;;5075434;28;20052;-70
2022/08/17 04:18:03;;;;;;;7.18;4.97;;;18.00;99.90;;;;;;5075354;28;20086;-70
2022/08/17 04:20:30;;;;;;;5.55;4.30;;;18.00;99.90;;;;;;5075798;28;20067;-71
2022/08/17 04:23:02;;;;;;;7.43;4.82;;;18.00;99.90;;;;;;5075715;28;20033;-70
2022/08/17 04:25:31;;;;;;;7.30;4.47;;;17.80;99.90;;;;;;5074252;28;20038;-70
2022/08/17 04:27:58;;;;;;;5.40;4.15;;;17.90;99.90;;;;;;5074185;28;20082;-70
2022/08/17 04:30:32;;;;;;;5.07;3.83;;;17.80;99.90;;;;;;5074043;28;20056;-71
2022/08/17 04:33:04;;;;;;;8.50;4.35;;;17.80;99.90;;;;;;5075505;28;20033;-71
2022/08/17 04:35:36;;;;;;;7.03;4.15;;;18.00;99.90;;;;;;5075283;28;20041;-71
2022/08/17 04:38:03;;;;;;;4.47;3.60;;;18.10;99.90;;;;;;5074243;28;20372;-70
2022/08/17 04:43:21;;;;;;;7.88;4.68;;;17.80;99.90;;;;;;5075282;28;20089;-71
2022/08/17 04:45:51;;;;;;;6.45;3.67;;;17.70;99.90;;;;;;5075521;28;20036;-70
2022/08/17 04:48:21;;;;;;;5.88;3.88;;;17.70;99.90;;;;;;5073680;28;20047;-70
2022/08/17 04:50:49;;;;;;;6.32;3.92;;;18.00;99.90;;;;;;5074021;28;20040;-70
2022/08/17 04:53:17;;;;;;;7.70;3.75;;;18.10;99.90;;;;;;5075658;28;20029;-70
2022/08/17 04:55:43;;;;;;;5.18;3.97;;;18.00;99.90;;;;;;5073956;28;20044;-69
2022/08/17 04:58:10;;;;;;;4.88;3.33;;;18.10;99.90;;;;;;5075057;28;20360;-69
2022/08/17 05:00:37;;;;;;;4.70;3.53;;;18.10;99.90;;;;;;5073850;28;20492;-70
2022/08/17 05:03:04;;;;;;;4.68;3.10;;;18.10;99.90;;;;;;5075359;28;20495;-69
2022/08/17 05:05:36;;;;;;;8.02;3.33;;;18.20;99.90;;;;;;5075449;28;20060;-69
2022/08/17 05:08:05;;;;;;;6.38;4.13;;;18.00;99.90;;;;;;5075355;28;20108;-69
2022/08/17 05:10:35;;;;;;;4.25;3.20;;;17.90;99.90;;;;;;5075202;28;20131;-70
2022/08/17 05:13:09;;;;;;;4.07;3.35;;;;;;;;;;5074949;28;20115;-70
2022/08/17 05:15:43;;;;;;;5.38;3.65;;;17.70;99.90;;;;;;5073337;28;20130;-70
2022/08/17 05:18:10;;;;;;;4.68;3.40;;;17.50;99.90;;;;;;5072973;28;20055;-70
2022/08/17 05:20:40;;;;;;;5.53;3.85;;;17.50;99.90;;;;;;5075006;28;20214;-70
2022/08/17 05:23:09;;;;;;;5.38;4.15;;;17.30;99.90;;;;;;5074535;28;20051;-70
2022/08/17 05:25:40;;;;;;;7.75;4.03;;;17.30;99.90;;;;;;5073060;28;20114;-70
2022/08/17 05:28:11;;;;;;;5.15;4.15;;;17.30;99.90;;;;;;5066288;28;20080;-69
2022/08/17 05:30:40;;;;;;;6.63;3.67;;;17.20;99.90;;;;;;5049782;28;20122;-70
2022/08/17 05:33:15;;;;;;;6.18;3.90;;;17.20;99.90;;;;;;5051797;28;20562;-69
2022/08/17 05:35:48;;;;;;;8.27;3.80;;;17.20;99.90;;;;;;5054057;28;20043;-70
2022/08/17 05:38:16;;;;;;;5.55;3.72;;;17.10;99.90;;;;;;5054036;28;20513;-70
2022/08/17 05:40:43;;;;;;;4.90;3.88;;;17.20;99.90;;;;;;5053776;28;20056;-70
2022/08/17 05:43:21;;;;;;;4.78;3.63;;;17.10;99.90;;;;;;5053804;28;20037;-70
2022/08/17 05:46:01;;;;;;;5.03;4.18;;;17.20;99.90;;;;;;5054407;28;20031;-70
2022/08/17 05:48:29;;;;;;;6.43;3.87;;;17.20;99.90;;;;;;5052807;28;20049;-70
2022/08/17 05:51:09;;;;;;;5.18;4.07;;;17.40;99.90;;;;;;5052927;28;20040;-70
2022/08/17 05:53:47;;;;;;;5.70;3.77;;;17.60;99.90;;;;;;5052723;28;20135;-69
2022/08/17 05:56:19;;;;;;;5.32;3.80;;;17.70;99.90;;;;;;5036002;28;20280;-69
2022/08/17 05:58:52;;;;;;;5.07;3.83;;;17.40;99.90;;;;;;5053865;28;20106;-69
2022/08/17 06:01:38;;;;;;;6.60;3.83;;;17.30;99.90;;;;;;5054467;28;20454;-70
2022/08/17 06:04:10;;;;;;;4.05;3.28;;;17.50;99.90;;;;;;5053919;28;20087;-70
2022/08/17 06:06:46;;;;;;;5.45;3.30;;;17.80;99.90;;;;;;5053649;28;20041;-70
2022/08/17 06:09:31;;;;;;;4.18;3.33;;;17.80;99.90;;;;;;5052350;28;20056;-70
2022/08/17 06:12:20;;;;;;;7.72;3.55;;;18.00;99.90;;;;;;5053779;28;20492;-70
2022/08/17 06:15:09;;;;;;;5.20;3.67;;;18.60;99.90;;;;;;5073460;28;20526;-70
2022/08/17 06:17:37;;;;;;;8.38;3.83;;;19.30;99.90;;;;;;5071943;28;20036;-70
2022/08/17 06:20:09;;;;;;;3.50;2.97;;;19.70;99.90;;;;;;5073646;28;20063;-69
2022/08/17 06:22:48;;;;;;;4.25;3.60;;;19.70;99.90;;;;;;5056163;28;20574;-70
2022/08/17 06:25:38;;;;;;;4.53;2.77;;;19.20;99.90;;;;;;5073502;28;20039;-69
2022/08/17 06:28:13;;;;;;;3.13;2.75;;;18.90;99.90;;;;;;5069424;28;20362;-69
2022/08/17 06:31:05;;;;;;;3.65;3.20;;;18.70;99.90;;;;;;5073429;28;20052;-71
2022/08/17 06:33:38;;;;;;;4.97;3.65;;;18.80;99.90;;;;;;5073604;28;20032;-70
2022/08/17 06:36:41;;;;;;;4.55;3.25;;;19.10;99.90;;;;;;5072000;28;20053;-69
2022/08/17 06:39:50;;;;;;;4.25;3.10;;;19.70;99.90;;;;;;5073554;28;20074;-69
2022/08/17 06:42:46;;;;;;;3.63;2.75;;;20.40;99.90;;;;;;5073160;28;20048;-70
2022/08/17 06:45:22;;;;;;;4.47;3.13;;;20.50;99.90;;;;;;5073322;28;20049;-70
2022/08/17 06:48:00;;;;;;;6.43;3.22;;;20.80;99.90;;;;;;5073652;28;20048;-69
2022/08/17 06:50:41;;;;;;;6.03;2.80;;;21.20;99.90;;;;;;5073416;28;20036;-70
2022/08/17 06:53:28;;;;;;;4.03;3.15;;;21.40;99.90;;;;;;5071398;28;20451;-70
2022/08/17 06:56:10;;;;;;;2.92;2.63;;;21.30;99.90;;;;;;5073263;28;20112;-71
2022/08/17 06:58:40;;;;;;;4.15;3.00;;;21.20;99.90;;;;;;5052925;28;20049;-70
2022/08/17 07:01:14;;;;;;;5.07;3.80;;;21.20;99.90;;;;;;5053520;28;20451;-69
2022/08/17 07:03:53;;;;;;;4.82;3.50;;;21.00;99.90;;;;;;5053149;28;20124;-69
2022/08/17 07:06:48;;;;;;;5.13;3.33;;;20.90;99.90;;;;;;5053736;28;20041;-69
2022/08/17 07:09:34;;;;;;;4.55;3.63;;;21.00;99.90;;;;;;5051836;28;20060;-70
2022/08/17 07:12:18;;;;;;;5.50;3.75;;;20.90;99.90;;;;;;5051620;28;20041;-70
2022/08/17 07:14:58;;;;;;;4.43;3.72;;;21.20;99.90;;;;;;5053322;28;20041;-69
2022/08/17 07:17:27;;;;;;;6.22;4.20;;;21.10;99.90;;;;;;5052747;28;20579;-70
2022/08/17 07:20:04;;;;;;;5.70;3.65;;;21.10;99.90;;;;;;5052926;28;20048;-70
2022/08/17 07:22:57;;;;;;;4.47;3.55;;;21.10;99.90;;;;;;5052901;28;20564;-70
2022/08/17 07:25:27;;;;;;;5.78;3.70;;;21.20;99.90;;;;;;5052600;28;20380;-70
2022/08/17 07:27:58;;;;;;;5.35;4.15;;;21.70;99.90;;;;;;5053488;28;20037;-70
2022/08/17 07:30:28;;;;;;;5.15;3.72;;;21.80;99.90;;;;;;5035336;28;20045;-70
2022/08/17 07:33:07;;;;;;;5.68;3.72;;;21.80;99.90;;;;;;5051921;28;20048;-70
2022/08/17 07:35:40;;;;;;;5.18;3.83;;;21.80;99.90;;;;;;5051290;28;20045;-70
2022/08/17 07:38:23;;;;;;;4.55;3.75;;;;;;;;;;5052353;28;20037;-70
2022/08/17 07:40:56;;;;;;;5.03;3.83;;;22.10;99.90;;;;;;5052159;28;20052;-70
2022/08/17 07:43:40;;;;;;;4.55;3.40;;;22.40;99.90;;;;;;5052325;28;20033;-70
2022/08/17 07:49:12;;;;;;;4.88;3.00;;;22.90;99.90;;;;;;5053539;28;20466;-70
2022/08/17 07:51:54;;;;;;;6.10;2.90;;;23.00;99.90;;;;;;5053090;28;20037;-70
2022/08/17 07:54:27;;;;;;;5.10;3.40;;;23.00;99.90;;;;;;5052781;28;20051;-70
2022/08/17 07:57:21;;;;;;;3.22;2.78;;;23.10;99.90;;;;;;5053045;28;20149;-70
2022/08/17 07:59:59;;;;;;;4.68;2.60;;;23.40;99.90;;;;;;5049123;28;20052;-70
2022/08/17 08:02:33;;;;;;;3.35;2.75;;;23.60;99.90;;;;;;5052862;28;20013;-70
2022/08/17 08:05:04;;;;;;;3.90;2.78;;;22.70;99.90;;;;;;5055200;28;20128;-70
2022/08/17 08:07:43;;;;;;;4.78;3.22;;;23.50;99.90;;;;;;5058581;28;20519;-70
2022/08/17 08:10:26;;;;;;;2.95;2.55;;;;;;;;;;5057059;28;20049;-70
2022/08/17 08:13:20;;;;;;;3.22;2.63;;;23.90;99.90;;;;;;5059160;28;20110;-70
2022/08/17 08:15:49;;;;;;;3.53;2.35;;;23.90;99.90;;;;;;5075970;28;20044;-70
2022/08/17 08:18:25;;;;;;;2.22;2.03;;;24.10;99.90;;;;;;5058546;28;20044;-70
2022/08/17 08:21:08;;;;;;;2.65;2.20;;;24.10;99.90;;;;;;5076595;28;20040;-70
2022/08/17 08:23:47;;;;;;;3.58;2.42;;;23.80;99.90;;;;;;5076320;28;20545;-70
2022/08/17 08:26:31;;;;;;;2.95;2.35;;;23.50;99.90;;;;;;5076276;28;20044;-70
2022/08/17 08:29:27;;;;;;;3.35;2.22;;;24.40;99.90;;;;;;5076649;28;20098;-70
2022/08/17 08:32:35;;;;;;;2.88;2.25;;;24.60;99.90;;;;;;5077402;28;20499;-70
2022/08/17 08:35:11;;;;;;;2.38;1.80;;;24.70;99.90;;;;;;5057276;28;20123;-71
2022/08/17 08:37:58;;;;;;;2.13;1.90;;;24.40;99.90;;;;;;5076588;28;20041;-71
2022/08/17 08:40:43;;;;;;;3.08;2.15;;;;;;;;;;5076996;28;20040;-70
2022/08/17 08:43:25;;;;;;;3.30;2.20;;;24.00;99.90;;;;;;5076325;28;20039;-70
2022/08/17 08:46:23;;;;;;;2.25;1.65;;;24.30;99.90;;;;;;5076934;28;20174;-71
2022/08/17 08:49:08;;;;;;;2.30;2.10;;;24.20;99.90;;;;;;5076901;28;20048;-71
2022/08/17 08:51:48;;;;;;;2.83;2.30;;;25.10;99.90;;;;;;5075768;28;20064;-70
2022/08/17 08:54:33;;;;;;;;;;;25.40;99.90;;;;;;5076204;28;20416;-70
2022/08/17 08:57:31;;;;;;;2.92;2.08;;;25.70;99.90;;;;;;5074301;28;19966;-70
2022/08/17 09:00:20;;;;;;;3.78;2.40;;;25.60;99.90;;;;;;5075652;28;20040;-70
2022/08/17 09:03:16;;;;;;;2.17;1.95;;;25.70;99.90;;;;;;5058489;28;20385;-70
2022/08/17 09:05:54;;;;;;;4.05;2.40;;;25.70;99.90;;;;;;5074505;28;20098;-71
2022/08/17 09:08:49;;;;;;;4.60;2.72;;;26.10;99.90;;;;;;5076451;28;20905;-70
2022/08/17 09:11:52;;;;;;;3.55;2.30;;;25.80;99.90;;;;;;5076448;28;20040;-70
2022/08/17 09:14:43;;;;;;;4.00;2.40;;;25.80;99.90;;;;;;5076347;28;20087;-70
2022/08/17 09:17:18;;;;;;;4.13;3.03;;;26.00;99.90;;;;;;5075613;28;20483;-70
2022/08/17 09:19:50;;;;;;;4.55;2.55;;;25.40;99.90;;;;;;5074696;28;20415;-69
2022/08/17 09:22:30;;;;;;;3.88;2.40;;;25.40;99.90;;;;;;5069286;28;20121;-69
2022/08/17 09:25:27;;;;;;;2.90;2.28;;;25.20;99.90;;;;;;5073949;28;20082;-69
2022/08/17 09:28:19;;;;;;;3.63;2.53;;;25.70;99.90;;;;;;5074565;28;20511;-70
2022/08/17 09:30:50;;;;;;;3.30;2.63;;;25.70;99.90;;;;;;5070431;28;20062;-70
2022/08/17 09:33:24;;;;;;;2.75;2.33;;;25.60;99.90;;;;;;5058340;28;20025;-70
2022/08/17 09:36:04;;;;;;;2.92;2.50;;;25.30;99.90;;;;;;5052332;28;20048;-69
2022/08/17 09:38:51;;;;;;;3.30;2.88;;;25.20;99.90;;;;;;5052573;28;20025;-69
2022/08/17 09:41:39;;;;;;;3.63;2.72;;;25.60;99.90;;;;;;5052408;28;20163;-70
2022/08/17 09:44:21;;;;;;;3.13;2.45;;;25.60;99.90;;;;;;5064810;28;20182;-69
2022/08/17 09:46:55;;;;;;;6.88;2.47;;;25.70;99.90;;;;;;5071286;28;20118;-69
2022/08/17 09:49:37;;;;;;;4.28;2.40;;;25.40;99.90;;;;;;5072516;28;20044;-69
2022/08/17 09:52:25;;;;;;;4.68;2.78;;;25.60;99.90;;;;;;5073226;28;20526;-69
2022/08/17 09:54:53;;;;;;;3.67;2.72;;;25.60;99.90;;;;;;5070962;28;20223;-69
2022/08/17 09:57:36;;;;;;;8.63;3.50;;;25.20;99.90;;;;;;5070894;28;20048;-69
2022/08/17 10:00:13;;;;;;;4.25;2.75;;;25.30;99.90;;;;;;5071762;28;20044;-69
2022/08/17 10:03:03;;;;;;;3.63;3.00;;;25.40;99.90;;;;;;5071093;28;20040;-70
2022/08/17 10:05:58;;;;;;;5.90;2.90;;;25.10;99.90;;;;;;5052586;28;20555;-69
2022/08/17 10:08:51;;;;;;;4.13;3.05;;;24.50;99.90;;;;;;5040841;28;20381;-70
2022/08/17 10:14:32;;;;;;;4.28;2.72;;;25.20;99.90;;;;;;5052312;28;20048;-68
2022/08/17 10:17:14;;;;;;;4.82;3.22;;;25.00;99.90;;;;;;5050612;28;20128;-68
2022/08/17 10:20:07;;;;;;;4.75;3.17;;;25.20;99.90;;;;;;5065939;28;20458;-69
2022/08/17 10:28:20;;;;;;;3.63;2.92;;;25.80;99.90;;;;;;5067173;28;20055;-68
2022/08/17 10:30:55;;;;;;;7.45;4.05;;;25.80;99.90;;;;;;5070231;28;20040;-68
2022/08/17 10:33:26;;;;;;;3.85;2.85;;;25.30;99.90;;;;;;5070243;28;20507;-68
2022/08/17 10:36:12;;;;;;;3.58;2.55;;;25.30;99.90;;;;;;5070687;28;20074;-68
2022/08/17 10:39:05;;;;;;;4.00;2.67;;;24.80;99.90;;;;;;5068066;28;20048;-69
2022/08/17 10:41:41;;;;;;;4.03;2.70;;;24.70;99.90;;;;;;5069757;28;20048;-68
2022/08/17 10:44:28;;;;;;;5.28;3.45;;;24.70;99.90;;;;;;5071202;28;20044;-68
2022/08/17 10:47:06;;;;;;;3.53;2.53;;;24.90;99.90;;;;;;5073053;28;20048;-68
2022/08/17 10:49:37;;;;;;;3.00;2.70;;;25.20;99.90;;;;;;5072455;28;20402;-69
2022/08/17 10:52:26;;;;;;;3.85;2.85;;;25.00;99.90;;;;;;5071571;28;20032;-69
2022/08/17 10:54:55;;;;;;;5.35;2.70;;;25.80;99.90;;;;;;5068643;28;20040;-69
2022/08/17 10:57:30;;;;;;;4.70;3.17;;;26.20;99.90;;;;;;5072395;28;20068;-69
2022/08/17 11:00:00;;;;;;;5.35;3.22;;;26.60;99.90;;;;;;5070859;28;20040;-69
2022/08/17 11:02:30;;;;;;;5.88;2.90;;;26.40;99.90;;;;;;5066879;28;20063;-68
2022/08/17 11:05:12;;;;;;;3.33;2.60;;;26.40;99.90;;;;;;5066556;28;20044;-68
2022/08/17 11:07:53;;;;;;;3.65;3.00;;;25.70;99.90;;;;;;5068806;28;20039;-71
2022/08/17 11:10:41;;;;;;;3.67;2.70;;;25.90;99.90;;;;;;5070800;28;20052;-70
2022/08/17 11:13:12;;;;;;;4.53;2.80;;;25.80;99.90;;;;;;5071212;28;20561;-68
2022/08/17 11:15:56;;;;;;;6.85;3.40;;;25.80;99.90;;;;;;5070191;28;20043;-69
2022/08/17 11:18:28;;;;;;;3.88;3.10;;;26.00;99.90;;;;;;5069360;28;20107;-68
2022/08/17 11:21:28;;;;;;;6.10;3.13;;;26.10;99.90;;;;;;5069709;28;20102;-71
2022/08/17 11:24:12;;;;;;;4.78;3.25;;;25.80;99.90;;;;;;5071009;28;20032;-71
2022/08/17 11:26:45;;;;;;;3.13;2.83;;;25.80;99.90;;;;;;5069199;28;20043;-70
2022/08/17 11:29:28;;;;;;;6.03;3.08;;;25.70;99.90;;;;;;5068364;28;20894;-71
2022/08/17 11:32:07;;;;;;;6.15;2.72;;;25.40;99.90;;;;;;5070600;28;20166;-71
2022/08/17 11:34:36;;;;;;;2.92;2.47;;;25.10;99.90;;;;;;5068970;28;20063;-71
2022/08/17 11:37:24;;;;;;;3.42;3.00;;;25.20;99.90;;;;;;5068615;28;20399;-69
2022/08/17 11:39:50;;;;;;;4.72;3.05;;;25.30;99.90;;;;;;5069596;28;20124;-69
2022/08/17 11:42:44;;;;;;;4.68;3.10;;;25.50;99.90;;;;;;5074260;28;20048;-70
2022/08/17 11:45:34;;;;;;;5.13;3.25;;;25.60;99.90;;;;;;5073312;28;20036;-69
2022/08/17 11:51:33;;;;;;;3.95;2.90;;;25.40;99.90;;;;;;5071783;28;20039;-70
2022/08/17 11:54:04;;;;;;;3.40;2.88;;;25.40;99.90;;;;;;5071618;28;20045;-71
2022/08/17 11:56:50;;;;;;;3.83;2.67;;;25.30;99.90;;;;;;5071314;28;20044;-71
2022/08/17 11:59:31;;;;;;;4.47;3.42;;;25.20;99.90;;;;;;5071774;28;20048;-69
2022/08/17 12:01:59;;;;;;;3.38;2.85;;;25.30;99.90;;;;;;5068846;28;20060;-69
2022/08/17 12:04:30;;;;;;;4.85;2.95;;;25.40;99.90;;;;;;5071976;28;20064;-69
2022/08/17 12:07:05;;;;;;;4.53;3.40;;;24.80;99.90;;;;;;5069723;28;20067;-68
2022/08/17 12:09:37;;;;;;;6.82;3.53;;;24.70;99.90;;;;;;5071088;28;20098;-70
2022/08/17 12:12:08;;;;;;;3.33;2.80;;;24.90;99.90;;;;;;5073361;28;20075;-69
2022/08/17 12:14:34;;;;;;;4.28;2.70;;;24.80;99.90;;;;;;5070105;28;20071;-69
2022/08/17 12:17:05;;;;;;;4.43;3.22;;;24.80;99.90;;;;;;5072137;28;20495;-69
2022/08/17 12:19:32;;;;;;;4.60;3.20;;;24.70;99.90;;;;;;5068509;28;20726;-69
2022/08/17 12:22:11;;;;;;;3.95;3.15;;;24.70;99.90;;;;;;5072620;28;20059;-69
2022/08/17 12:25:07;;;;;;;3.60;3.05;;;24.30;99.90;;;;;;5073293;28;20508;-70
2022/08/17 12:27:42;;;;;;;3.75;2.83;;;24.00;99.90;;;;;;5071887;28;20123;-69
2022/08/17 12:30:14;;;;;;;4.00;2.95;;;24.00;99.90;;;;;;5072264;28;20044;-68
2022/08/17 12:32:40;;;;;;;6.03;3.55;;;24.00;99.90;;;;;;5073776;28;20380;-68
2022/08/17 12:35:33;;;;;;;3.45;3.00;;;23.90;99.90;;;;;;5074116;28;20603;-69
2022/08/17 12:38:00;;;;;;;5.72;3.53;;;23.80;99.90;;;;;;5073448;28;20075;-67
2022/08/17 12:40:30;;;;;;;5.25;3.35;;;23.80;99.90;;;;;;5073806;28;20037;-69
2022/08/17 12:42:59;;;;;;;;;;;23.60;99.90;;;;;;5074112;28;20094;-67
2022/08/17 12:45:28;;;;;;;5.28;3.22;;;23.50;99.90;;;;;;5073405;28;19919;-65
2022/08/17 12:48:05;;;;;;;4.70;3.60;;;23.30;99.90;;;;;;5073195;28;20028;-66
2022/08/17 12:50:31;;;;;;;3.83;3.25;;;23.10;99.90;;;;;;5070907;28;20055;-67
2022/08/17 12:52:57;;;;;;;5.97;3.10;;;23.00;99.90;;;;;;5072232;28;20628;-67
2022/08/17 12:55:24;;;;;;;5.57;3.13;;;22.90;99.90;;;;;;5074719;28;20114;-67
2022/08/17 12:57:57;;;;;;;5.78;3.28;;;22.80;99.90;;;;;;5073830;28;20135;-66
2022/08/17 13:00:31;;;;;;;8.40;3.65;;;22.70;99.90;;;;;;5073957;28;20083;-66
2022/08/17 13:03:06;;;;;;;4.75;3.17;;;22.60;99.90;;;;;;5075274;28;20431;-66
2022/08/17 13:05:37;;;;;;;5.85;3.50;;;22.60;99.90;;;;;;5075057;28;20037;-67
2022/08/17 13:08:30;;;;;;;3.83;3.42;;;22.50;99.90;;;;;;5074601;28;20033;-68
2022/08/17 13:11:01;;;;;;;9.15;3.50;;;22.60;99.90;;;;;;5068559;28;20040;-70
2022/08/17 13:13:37;;;;;;;5.32;3.58;;;22.60;99.90;;;;;;5075086;28;20052;-70
2022/08/17 13:16:15;;;;;;;6.63;3.67;;;22.80;99.90;;;;;;5074702;28;20563;-74
2022/08/17 13:19:11;;;;;;;5.15;3.20;;;22.70;99.90;;;;;;5074950;28;20040;-73
2022/08/17 13:21:51;;;;;;;5.65;3.60;;;22.10;99.90;;;;;;5074195;28;20043;-74
2022/08/17 13:24:27;;;;;;;4.25;3.30;;;22.00;99.90;;;;;;5074228;28;20097;-74
2022/08/17 13:27:08;;;;;;;5.78;3.88;;;22.20;99.90;;;;;;5069808;28;20036;-72
2022/08/17 13:29:37;;;;;;;5.80;3.90;;;21.80;99.90;;;;;;5070777;28;20056;-71
2022/08/17 13:32:06;;;;;;;8.23;3.28;;;21.40;99.90;;;;;;5071643;28;20407;-70
2022/08/17 13:34:43;;;;;;;;;;;21.10;99.90;;;;;;5065201;28;20121;-70
2022/08/17 13:37:33;;;;;;;6.50;4.00;;;21.00;99.90;;;;;;5065328;28;20268;-69
2022/08/17 13:39:59;;;;;;;;;;;20.80;99.90;;;;;;5064042;28;20043;-70
2022/08/17 13:42:42;;;;;;;10.45;4.65;;;20.70;99.90;;;;;;5072097;28;20287;-72
2022/08/17 13:45:30;;;;;;;6.28;4.25;;;20.60;99.90;;;;;;5072323;28;20094;-72
2022/08/17 13:48:18;;;;;;;6.22;3.60;;;21.00;99.90;;;;;;5071750;28;20043;-70
2022/08/17 13:50:56;;;;;;;5.95;3.58;;;21.10;99.90;;;;;;5071929;28;20072;-70
2022/08/17 13:53:26;;;;;;;5.85;3.95;;;21.20;99.90;;;;;;5071472;28;20082;-71
2022/08/17 13:56:24;;;;;;;4.60;3.00;;;21.10;99.90;;;;;;5070065;28;20514;-71
2022/08/17 13:58:53;;;;;;;6.97;3.80;;;20.80;99.90;;;;;;5073083;28;20052;-71
2022/08/17 14:01:45;;;;;;;6.70;2.83;;;20.70;99.90;;;;;;5070649;28;20039;-72
2022/08/17 14:04:23;;;;;;;6.47;2.70;;;20.70;99.90;;;;;;5069895;28;20036;-70